Bookmark and Share
Track history (hours):
 

Mitsukawa Maru

Last reported at 2014-Apr-15 17:12 UTC. Time now 2014-Apr-16 16:01 UTC.
Position N 33°55' E 134°54'.

Length 105 m; draft 4.7 m.

Type: Cargo ship. MMSI: 431000326.

NotesDate/timePositionNaut miles runAvg speedWind from/ knotsBaromVisibWave heightAir tempDewpointWater temp
2014-Apr-15 17:12N 33°55' E 134°54'913.7
2014-Apr-15 16:33N 34°04' E 134°55'1514.0
2014-Apr-15 15:31N 34°18' E 134°59'1313.5
2014-Apr-15 14:33N 34°31' E 135°02'7 3.7
2014-Apr-15 12:34N 34°35' E 134°55'  
2014-Apr-07 23:29N 34°43' E 139°07'1212.8
2014-Apr-07 22:30N 34°53' E 139°17'1213.1
2014-Apr-07 21:33N 34°60' E 139°29'1313.5
2014-Apr-07 20:33N 35°08' E 139°42'1211.6
2014-Apr-07 19:33N 35°19' E 139°43'2412.0
2014-Apr-07 17:33N 35°35' E 140°05'2 1.8
2014-Apr-07 16:33N 35°34' E 140°07'0 0.0
2014-Apr-07 15:33N 35°34' E 140°07'0 0.0
2014-Apr-07 14:33N 35°34' E 140°07'0 0.0
2014-Apr-07 13:33N 35°34' E 140°07'0 0.0
2014-Apr-07 12:33N 35°34' E 140°07'0 0.0
2014-Apr-07 11:33N 35°34' E 140°07'0 0.0
2014-Apr-07 10:33N 35°34' E 140°07'0 0.0
2014-Apr-07 09:34N 35°34' E 140°07'0 0.0
2014-Apr-07 08:33N 35°34' E 140°07'0 0.0
2014-Apr-07 07:33N 35°34' E 140°07'0 0.0
2014-Apr-07 06:33N 35°34' E 140°07'0 0.0
2014-Apr-07 05:33N 35°34' E 140°07'0 0.0
2014-Apr-07 04:33N 35°34' E 140°07'0 0.0
2014-Apr-07 03:33N 35°34' E 140°07'0 0.0
2014-Apr-07 02:34N 35°34' E 140°07'0 0.0
2014-Apr-07 01:33N 35°34' E 140°07'0 0.0
2014-Apr-07 00:33N 35°34' E 140°07'0 0.0
2014-Apr-06 23:33N 35°34' E 140°07'2 2.1
2014-Apr-06 22:33N 35°35' E 140°05'5 5.0
2014-Apr-06 21:32N 35°34' E 139°59'0 0.0
2014-Apr-06 20:29N 35°34' E 139°59'5 4.9
2014-Apr-06 19:33N 35°31' E 139°54'1111.1
2014-Apr-06 18:33N 35°22' E 139°45'1010.2
2014-Apr-06 17:33N 35°12' E 139°47'1111.1
2014-Apr-06 16:33N 35°02' E 139°41'1211.9
2014-Apr-06 15:33N 34°55' E 139°29'1412.6
2014-Apr-06 14:25N 34°46' E 139°15'  

Dump ship's entire track history

sailing weather and tide predictions

Mitsukawa Maru — JD2495 — position and weather